首页
METAR-TAF:

METAR-TAF

机场 :

莱克查尔斯, 路易斯安那州, 美国

纬度: 30-13N, 经度: 093-09W, 海拔: 4米

当前天气观测

该预报发布于25分钟前的04:15 UTC
风速10节,风向西转西北,有时为15节阵风
温度 24°C
湿度 74%
气压 1011 hPa
能見度: 16.1公里
多云层高于1500英尺
多云层高于2100英尺
阴天层高于3500英尺

METAR: KCWF 250415Z AUTO 30010G15KT 10SM BKN015 BKN021 OVC035 24/19 A2986 RMK AO2 LTG DSNT SE AND SW T02400193

时间: 23:40 (04:40 UTC)


TAF: 丢失

超过4000个机场的气象观测和天气预报(METAR&TAF报告)。

可查询的气象台以黄色和红色小点在地图上表示。

将鼠标移到小点上方,可查看气象台名称。

然后点击查看天气观测和预报。

如需切换地图:点击带黑十字的绿色按钮放大地图;点击带横线的绿色按钮缩小地图;或者点击绿色箭头查看邻近地区的地图。


METAR-TAF: